sensor_id;sensor_type;location;lat;lon;timestamp;pressure;altitude;pressure_sealevel;temperature;humidity
27685;BME280;46113;50.130;8.526;2024-01-15T00:02:07;97861.88;;;-6.29;71.08
27685;BME280;46113;50.130;8.526;2024-01-15T00:04:39;97859.91;;;-6.05;71.02
27685;BME280;46113;50.130;8.526;2024-01-15T00:07:06;97853.28;;;-6.25;71.39
27685;BME280;46113;50.130;8.526;2024-01-15T00:09:33;97840.38;;;-6.22;71.17
27685;BME280;46113;50.130;8.526;2024-01-15T00:12:01;97830.03;;;-6.20;72.11
27685;BME280;46113;50.130;8.526;2024-01-15T00:14:28;97828.50;;;-6.35;72.47
27685;BME280;46113;50.130;8.526;2024-01-15T00:16:55;97835.31;;;-6.31;71.92
27685;BME280;46113;50.130;8.526;2024-01-15T00:19:22;97821.56;;;-6.28;72.13
27685;BME280;46113;50.130;8.526;2024-01-15T00:21:50;97815.56;;;-6.32;71.70
27685;BME280;46113;50.130;8.526;2024-01-15T00:24:20;97817.25;;;-6.29;71.89
27685;BME280;46113;50.130;8.526;2024-01-15T00:26:46;97820.50;;;-6.15;71.88
27685;BME280;46113;50.130;8.526;2024-01-15T00:29:13;97815.44;;;-6.21;72.08
27685;BME280;46113;50.130;8.526;2024-01-15T00:31:40;97818.09;;;-6.26;72.69
27685;BME280;46113;50.130;8.526;2024-01-15T00:34:07;97813.94;;;-6.38;72.97
27685;BME280;46113;50.130;8.526;2024-01-15T00:36:34;97810.31;;;-6.21;72.82
27685;BME280;46113;50.130;8.526;2024-01-15T00:39:01;97803.47;;;-6.24;71.83
27685;BME280;46113;50.130;8.526;2024-01-15T00:41:28;97795.75;;;-6.24;71.99
27685;BME280;46113;50.130;8.526;2024-01-15T00:43:55;97804.19;;;-6.12;71.45
27685;BME280;46113;50.130;8.526;2024-01-15T00:46:22;97792.97;;;-6.08;71.84
27685;BME280;46113;50.130;8.526;2024-01-15T00:48:49;97804.22;;;-6.15;71.94
27685;BME280;46113;50.130;8.526;2024-01-15T00:51:16;97787.31;;;-6.34;72.59
27685;BME280;46113;50.130;8.526;2024-01-15T00:53:43;97800.09;;;-6.27;71.99
27685;BME280;46113;50.130;8.526;2024-01-15T00:56:10;97804.25;;;-6.18;72.56
27685;BME280;46113;50.130;8.526;2024-01-15T00:58:36;97798.31;;;-6.24;72.48
27685;BME280;46113;50.130;8.526;2024-01-15T01:01:03;97785.81;;;-6.52;72.94
27685;BME280;46113;50.130;8.526;2024-01-15T01:03:30;97797.06;;;-6.62;74.23
27685;BME280;46113;50.130;8.526;2024-01-15T01:05:57;97790.72;;;-6.35;73.72
27685;BME280;46113;50.130;8.526;2024-01-15T01:08:24;97789.31;;;-6.59;74.15
27685;BME280;46113;50.130;8.526;2024-01-15T01:10:51;97780.47;;;-6.36;73.38
27685;BME280;46113;50.130;8.526;2024-01-15T01:13:18;97783.28;;;-6.58;73.92
27685;BME280;46113;50.130;8.526;2024-01-15T01:15:45;97789.13;;;-6.43;74.87
27685;BME280;46113;50.130;8.526;2024-01-15T01:18:12;97784.78;;;-6.40;74.48
27685;BME280;46113;50.130;8.526;2024-01-15T01:20:39;97783.88;;;-6.34;74.44
27685;BME280;46113;50.130;8.526;2024-01-15T01:23:06;97785.81;;;-6.52;74.65
27685;BME280;46113;50.130;8.526;2024-01-15T01:25:33;97782.09;;;-6.30;74.74
27685;BME280;46113;50.130;8.526;2024-01-15T01:27:59;97781.59;;;-6.59;74.82
27685;BME280;46113;50.130;8.526;2024-01-15T01:30:26;97786.53;;;-6.43;75.10
27685;BME280;46113;50.130;8.526;2024-01-15T01:32:53;97774.66;;;-6.52;75.17
27685;BME280;46113;50.130;8.526;2024-01-15T01:35:20;97781.63;;;-6.62;75.26
27685;BME280;46113;50.130;8.526;2024-01-15T01:37:47;97787.25;;;-6.32;75.22
27685;BME280;46113;50.130;8.526;2024-01-15T01:40:14;97786.63;;;-6.51;75.22
27685;BME280;46113;50.130;8.526;2024-01-15T01:42:41;97785.50;;;-6.28;75.09
27685;BME280;46113;50.130;8.526;2024-01-15T01:45:08;97789.72;;;-6.24;74.96
27685;BME280;46113;50.130;8.526;2024-01-15T01:47:35;97792.53;;;-6.41;75.31
27685;BME280;46113;50.130;8.526;2024-01-15T01:50:03;97783.09;;;-6.42;75.51
27685;BME280;46113;50.130;8.526;2024-01-15T01:52:30;97786.44;;;-6.34;74.81
27685;BME280;46113;50.130;8.526;2024-01-15T01:55:00;97785.41;;;-6.21;75.04
27685;BME280;46113;50.130;8.526;2024-01-15T01:57:27;97783.34;;;-6.63;74.75
27685;BME280;46113;50.130;8.526;2024-01-15T01:59:55;97781.38;;;-6.40;74.68
27685;BME280;46113;50.130;8.526;2024-01-15T02:02:22;97777.91;;;-6.39;75.32
27685;BME280;46113;50.130;8.526;2024-01-15T02:04:49;97782.09;;;-6.32;75.48
27685;BME280;46113;50.130;8.526;2024-01-15T02:07:16;97772.59;;;-6.25;75.29
27685;BME280;46113;50.130;8.526;2024-01-15T02:09:44;97773.56;;;-6.36;74.77
27685;BME280;46113;50.130;8.526;2024-01-15T02:12:11;97763.59;;;-6.61;75.39
27685;BME280;46113;50.130;8.526;2024-01-15T02:14:46;97757.25;;;-6.33;75.00
27685;BME280;46113;50.130;8.526;2024-01-15T02:17:13;97759.66;;;-6.19;74.95
27685;BME280;46113;50.130;8.526;2024-01-15T02:19:40;97758.78;;;-6.18;74.70
27685;BME280;46113;50.130;8.526;2024-01-15T02:22:08;97753.66;;;-6.21;75.36
27685;BME280;46113;50.130;8.526;2024-01-15T02:24:34;97756.44;;;-6.37;74.97
27685;BME280;46113;50.130;8.526;2024-01-15T02:27:02;97747.69;;;-6.23;74.94
27685;BME280;46113;50.130;8.526;2024-01-15T02:29:29;97763.91;;;-6.16;75.39
27685;BME280;46113;50.130;8.526;2024-01-15T02:31:55;97752.28;;;-6.47;74.55
27685;BME280;46113;50.130;8.526;2024-01-15T02:34:22;97741.75;;;-6.30;74.77
27685;BME280;46113;50.130;8.526;2024-01-15T02:36:50;97749.38;;;-6.22;74.96
27685;BME280;46113;50.130;8.526;2024-01-15T02:39:17;97759.78;;;-6.28;74.64
27685;BME280;46113;50.130;8.526;2024-01-15T02:41:47;97757.94;;;-6.20;73.78
27685;BME280;46113;50.130;8.526;2024-01-15T02:44:14;97757.00;;;-6.14;74.08
27685;BME280;46113;50.130;8.526;2024-01-15T02:46:41;97752.72;;;-6.14;74.56
27685;BME280;46113;50.130;8.526;2024-01-15T02:49:08;97758.66;;;-6.10;73.91
27685;BME280;46113;50.130;8.526;2024-01-15T02:51:34;97756.84;;;-6.03;74.30
27685;BME280;46113;50.130;8.526;2024-01-15T02:54:01;97757.66;;;-6.00;73.91
27685;BME280;46113;50.130;8.526;2024-01-15T02:56:28;97763.94;;;-6.21;74.27
27685;BME280;46113;50.130;8.526;2024-01-15T02:58:55;97754.56;;;-6.25;74.62
27685;BME280;46113;50.130;8.526;2024-01-15T03:01:22;97755.13;;;-6.03;74.10
27685;BME280;46113;50.130;8.526;2024-01-15T03:03:49;97757.69;;;-6.03;74.37
27685;BME280;46113;50.130;8.526;2024-01-15T03:06:16;97748.28;;;-6.04;74.44
27685;BME280;46113;50.130;8.526;2024-01-15T03:08:43;97745.13;;;-6.23;75.80
27685;BME280;46113;50.130;8.526;2024-01-15T03:11:09;97752.59;;;-6.06;75.03
27685;BME280;46113;50.130;8.526;2024-01-15T03:13:36;97755.09;;;-6.01;74.52
27685;BME280;46113;50.130;8.526;2024-01-15T03:16:05;97752.88;;;-6.26;75.36
27685;BME280;46113;50.130;8.526;2024-01-15T03:18:35;97746.69;;;-6.14;74.26
27685;BME280;46113;50.130;8.526;2024-01-15T03:21:03;97753.41;;;-6.02;74.71
27685;BME280;46113;50.130;8.526;2024-01-15T03:23:31;97751.63;;;-5.97;74.26
27685;BME280;46113;50.130;8.526;2024-01-15T03:25:58;97764.88;;;-6.27;75.40
27685;BME280;46113;50.130;8.526;2024-01-15T03:28:27;97760.34;;;-6.08;74.56
27685;BME280;46113;50.130;8.526;2024-01-15T03:30:59;97760.22;;;-5.98;74.04
27685;BME280;46113;50.130;8.526;2024-01-15T03:33:36;97767.78;;;-5.87;73.76
27685;BME280;46113;50.130;8.526;2024-01-15T03:36:03;97764.47;;;-5.96;74.29
27685;BME280;46113;50.130;8.526;2024-01-15T03:38:30;97761.84;;;-5.93;74.09
27685;BME280;46113;50.130;8.526;2024-01-15T03:40:57;97765.19;;;-5.87;74.25
27685;BME280;46113;50.130;8.526;2024-01-15T03:43:25;97757.69;;;-6.03;74.60
27685;BME280;46113;50.130;8.526;2024-01-15T03:45:53;97762.19;;;-6.17;74.11
27685;BME280;46113;50.130;8.526;2024-01-15T03:48:22;97766.50;;;-6.20;74.00
27685;BME280;46113;50.130;8.526;2024-01-15T03:50:49;97764.38;;;-5.88;73.37
27685;BME280;46113;50.130;8.526;2024-01-15T03:53:16;97753.06;;;-5.79;73.73
27685;BME280;46113;50.130;8.526;2024-01-15T03:56:23;97761.06;;;-5.98;74.59
27685;BME280;46113;50.130;8.526;2024-01-15T03:58:53;97755.00;;;-5.95;74.14
27685;BME280;46113;50.130;8.526;2024-01-15T04:01:21;97746.19;;;-5.78;73.93
27685;BME280;46113;50.130;8.526;2024-01-15T04:03:47;97750.44;;;-5.76;73.97
27685;BME280;46113;50.130;8.526;2024-01-15T04:06:14;97747.78;;;-5.70;73.29
27685;BME280;46113;50.130;8.526;2024-01-15T04:08:41;97745.78;;;-6.09;74.17
27685;BME280;46113;50.130;8.526;2024-01-15T04:11:08;97741.34;;;-6.02;73.73
27685;BME280;46113;50.130;8.526;2024-01-15T04:13:35;97748.34;;;-6.09;74.16
27685;BME280;46113;50.130;8.526;2024-01-15T04:16:04;97745.59;;;-5.96;74.55
27685;BME280;46113;50.130;8.526;2024-01-15T04:18:32;97733.06;;;-6.21;74.10
27685;BME280;46113;50.130;8.526;2024-01-15T04:20:59;97736.91;;;-5.90;74.62
27685;BME280;46113;50.130;8.526;2024-01-15T04:23:26;97732.94;;;-6.13;74.02
27685;BME280;46113;50.130;8.526;2024-01-15T04:25:56;97735.50;;;-6.10;74.66
27685;BME280;46113;50.130;8.526;2024-01-15T04:28:22;97734.91;;;-6.31;74.61
27685;BME280;46113;50.130;8.526;2024-01-15T04:30:49;97736.41;;;-6.14;75.32
27685;BME280;46113;50.130;8.526;2024-01-15T04:33:16;97738.84;;;-6.03;74.80
27685;BME280;46113;50.130;8.526;2024-01-15T04:35:43;97739.66;;;-6.03;74.55
27685;BME280;46113;50.130;8.526;2024-01-15T04:38:10;97750.94;;;-6.09;74.76
27685;BME280;46113;50.130;8.526;2024-01-15T04:40:37;97743.25;;;-6.15;75.39
27685;BME280;46113;50.130;8.526;2024-01-15T04:43:04;97738.72;;;-5.97;75.15
27685;BME280;46113;50.130;8.526;2024-01-15T04:45:31;97739.50;;;-5.90;75.05
27685;BME280;46113;50.130;8.526;2024-01-15T04:47:58;97731.78;;;-5.92;75.07
27685;BME280;46113;50.130;8.526;2024-01-15T04:50:25;97729.56;;;-6.17;75.30
27685;BME280;46113;50.130;8.526;2024-01-15T04:52:52;97742.22;;;-6.00;75.33
27685;BME280;46113;50.130;8.526;2024-01-15T04:55:19;97731.03;;;-5.99;74.82
27685;BME280;46113;50.130;8.526;2024-01-15T04:57:46;97739.56;;;-5.97;75.11
27685;BME280;46113;50.130;8.526;2024-01-15T05:00:13;97735.53;;;-6.13;74.22
27685;BME280;46113;50.130;8.526;2024-01-15T05:02:41;97737.69;;;-5.85;74.76
27685;BME280;46113;50.130;8.526;2024-01-15T05:05:08;97732.50;;;-5.84;74.86
27685;BME280;46113;50.130;8.526;2024-01-15T05:07:35;97727.44;;;-5.90;74.77
27685;BME280;46113;50.130;8.526;2024-01-15T05:10:02;97737.75;;;-5.88;75.27
27685;BME280;46113;50.130;8.526;2024-01-15T05:12:32;97727.56;;;-5.96;75.43
27685;BME280;46113;50.130;8.526;2024-01-15T05:14:59;97730.09;;;-5.95;75.49
27685;BME280;46113;50.130;8.526;2024-01-15T05:17:32;97723.19;;;-5.91;74.86
27685;BME280;46113;50.130;8.526;2024-01-15T05:19:59;97720.81;;;-6.05;75.25
27685;BME280;46113;50.130;8.526;2024-01-15T05:22:27;97718.03;;;-5.93;75.46
27685;BME280;46113;50.130;8.526;2024-01-15T05:24:53;97711.34;;;-6.03;75.29
27685;BME280;46113;50.130;8.526;2024-01-15T05:27:26;97717.34;;;-6.02;75.38
27685;BME280;46113;50.130;8.526;2024-01-15T05:29:59;97722.50;;;-6.04;75.55
27685;BME280;46113;50.130;8.526;2024-01-15T05:32:28;97711.06;;;-5.86;75.23
27685;BME280;46113;50.130;8.526;2024-01-15T05:35:07;97717.03;;;-5.84;74.95
27685;BME280;46113;50.130;8.526;2024-01-15T05:37:43;97717.31;;;-6.01;75.38
27685;BME280;46113;50.130;8.526;2024-01-15T05:40:10;97715.28;;;-5.80;75.17
27685;BME280;46113;50.130;8.526;2024-01-15T05:42:43;97720.44;;;-5.80;75.24
27685;BME280;46113;50.130;8.526;2024-01-15T05:45:27;97714.53;;;-5.87;74.57
27685;BME280;46113;50.130;8.526;2024-01-15T05:47:59;97708.38;;;-5.78;75.28
27685;BME280;46113;50.130;8.526;2024-01-15T05:50:26;97712.63;;;-5.75;74.87
27685;BME280;46113;50.130;8.526;2024-01-15T05:52:53;97704.78;;;-5.68;74.63
27685;BME280;46113;50.130;8.526;2024-01-15T05:55:22;97711.84;;;-5.81;74.57
27685;BME280;46113;50.130;8.526;2024-01-15T05:57:49;97710.13;;;-5.80;74.59
27685;BME280;46113;50.130;8.526;2024-01-15T06:00:16;97703.19;;;-5.76;74.94
27685;BME280;46113;50.130;8.526;2024-01-15T06:02:44;97708.59;;;-5.90;75.12
27685;BME280;46113;50.130;8.526;2024-01-15T06:05:36;97713.38;;;-5.69;75.09
27685;BME280;46113;50.130;8.526;2024-01-15T06:08:53;97717.78;;;-5.75;75.23
27685;BME280;46113;50.130;8.526;2024-01-15T06:11:41;97714.19;;;-5.67;75.17
27685;BME280;46113;50.130;8.526;2024-01-15T06:14:24;97713.34;;;-5.65;75.15
27685;BME280;46113;50.130;8.526;2024-01-15T06:16:56;97715.97;;;-5.69;74.53
27685;BME280;46113;50.130;8.526;2024-01-15T06:19:56;97720.34;;;-5.75;75.18
27685;BME280;46113;50.130;8.526;2024-01-15T06:22:46;97708.00;;;-5.55;74.95
27685;BME280;46113;50.130;8.526;2024-01-15T06:25:51;97716.09;;;-5.78;75.56
27685;BME280;46113;50.130;8.526;2024-01-15T06:28:52;97709.94;;;-5.68;75.82
27685;BME280;46113;50.130;8.526;2024-01-15T06:31:47;97718.31;;;-5.55;75.34
27685;BME280;46113;50.130;8.526;2024-01-15T06:35:07;97707.25;;;-5.61;75.94
27685;BME280;46113;50.130;8.526;2024-01-15T06:37:57;97701.41;;;-5.73;75.29
27685;BME280;46113;50.130;8.526;2024-01-15T06:40:38;97708.13;;;-5.64;75.14
27685;BME280;46113;50.130;8.526;2024-01-15T06:43:22;97701.53;;;-5.81;75.58
27685;BME280;46113;50.130;8.526;2024-01-15T06:46:00;97709.25;;;-5.77;75.24
27685;BME280;46113;50.130;8.526;2024-01-15T06:48:32;97712.59;;;-5.72;76.16
27685;BME280;46113;50.130;8.526;2024-01-15T06:50:59;97713.53;;;-5.78;75.97
27685;BME280;46113;50.130;8.526;2024-01-15T06:53:26;97709.88;;;-5.63;75.17
27685;BME280;46113;50.130;8.526;2024-01-15T06:55:53;97715.06;;;-5.68;75.30
27685;BME280;46113;50.130;8.526;2024-01-15T06:58:20;97719.22;;;-5.59;75.53
27685;BME280;46113;50.130;8.526;2024-01-15T07:00:47;97724.22;;;-5.49;74.89
27685;BME280;46113;50.130;8.526;2024-01-15T07:03:14;97724.38;;;-5.59;74.59
27685;BME280;46113;50.130;8.526;2024-01-15T07:05:42;97710.91;;;-5.73;75.58
27685;BME280;46113;50.130;8.526;2024-01-15T07:08:09;97717.72;;;-5.71;76.30
27685;BME280;46113;50.130;8.526;2024-01-15T07:10:36;97720.00;;;-5.54;75.90
27685;BME280;46113;50.130;8.526;2024-01-15T07:13:03;97710.13;;;-5.78;76.08
27685;BME280;46113;50.130;8.526;2024-01-15T07:15:32;97715.06;;;-5.68;75.54
27685;BME280;46113;50.130;8.526;2024-01-15T07:17:59;97712.47;;;-5.64;74.88
27685;BME280;46113;50.130;8.526;2024-01-15T07:20:27;97701.31;;;-5.67;75.79
27685;BME280;46113;50.130;8.526;2024-01-15T07:22:54;97704.00;;;-5.73;75.71
27685;BME280;46113;50.130;8.526;2024-01-15T07:25:21;97702.06;;;-5.60;75.22
27685;BME280;46113;50.130;8.526;2024-01-15T07:27:48;97715.03;;;-5.63;76.08
27685;BME280;46113;50.130;8.526;2024-01-15T07:30:15;97706.25;;;-5.52;76.12
27685;BME280;46113;50.130;8.526;2024-01-15T07:32:42;97709.53;;;-5.44;75.05
27685;BME280;46113;50.130;8.526;2024-01-15T07:35:09;97706.44;;;-5.63;75.98
27685;BME280;46113;50.130;8.526;2024-01-15T07:37:37;97713.09;;;-5.51;75.46
27685;BME280;46113;50.130;8.526;2024-01-15T07:40:04;97720.59;;;-5.37;75.25
27685;BME280;46113;50.130;8.526;2024-01-15T07:42:33;97716.22;;;-5.34;75.99
27685;BME280;46113;50.130;8.526;2024-01-15T07:45:01;97717.13;;;-5.36;74.96
27685;BME280;46113;50.130;8.526;2024-01-15T07:47:28;97723.97;;;-5.34;74.84
27685;BME280;46113;50.130;8.526;2024-01-15T07:49:55;97720.47;;;-5.30;75.28
27685;BME280;46113;50.130;8.526;2024-01-15T07:52:25;97716.28;;;-5.35;74.47
27685;BME280;46113;50.130;8.526;2024-01-15T07:54:52;97716.19;;;-5.32;75.31
27685;BME280;46113;50.130;8.526;2024-01-15T07:57:19;97727.16;;;-5.19;74.95
27685;BME280;46113;50.130;8.526;2024-01-15T07:59:46;97721.47;;;-5.38;74.67
27685;BME280;46113;50.130;8.526;2024-01-15T08:02:13;97723.66;;;-5.15;74.59
27685;BME280;46113;50.130;8.526;2024-01-15T08:04:40;97714.88;;;-5.06;74.44
27685;BME280;46113;50.130;8.526;2024-01-15T08:07:07;97717.53;;;-5.09;74.45
27685;BME280;46113;50.130;8.526;2024-01-15T08:09:34;97712.16;;;-4.98;74.15
27685;BME280;46113;50.130;8.526;2024-01-15T08:12:01;97717.03;;;-5.30;73.98
27685;BME280;46113;50.130;8.526;2024-01-15T08:14:28;97710.25;;;-5.36;75.27
27685;BME280;46113;50.130;8.526;2024-01-15T08:16:55;97702.97;;;-5.12;74.30
27685;BME280;46113;50.130;8.526;2024-01-15T08:19:21;97694.47;;;-5.19;74.20
27685;BME280;46113;50.130;8.526;2024-01-15T08:21:49;97710.09;;;-5.27;74.78
27685;BME280;46113;50.130;8.526;2024-01-15T08:24:16;97695.69;;;-5.38;75.58
27685;BME280;46113;50.130;8.526;2024-01-15T08:26:43;97693.59;;;-5.18;74.23
27685;BME280;46113;50.130;8.526;2024-01-15T08:29:10;97692.31;;;-4.95;74.37
27685;BME280;46113;50.130;8.526;2024-01-15T08:31:37;97695.59;;;-4.88;74.03
27685;BME280;46113;50.130;8.526;2024-01-15T08:34:04;97704.09;;;-4.81;74.65
27685;BME280;46113;50.130;8.526;2024-01-15T08:36:31;97703.19;;;-4.80;74.67
27685;BME280;46113;50.130;8.526;2024-01-15T08:38:58;97700.75;;;-4.87;73.82
27685;BME280;46113;50.130;8.526;2024-01-15T08:41:25;97702.38;;;-4.82;74.10
27685;BME280;46113;50.130;8.526;2024-01-15T08:43:52;97705.91;;;-4.87;73.89
27685;BME280;46113;50.130;8.526;2024-01-15T08:46:19;97703.50;;;-4.96;73.95
27685;BME280;46113;50.130;8.526;2024-01-15T08:48:46;97695.13;;;-4.65;73.45
27685;BME280;46113;50.130;8.526;2024-01-15T08:51:13;97698.03;;;-4.80;72.99
27685;BME280;46113;50.130;8.526;2024-01-15T08:53:40;97697.88;;;-4.72;73.86
27685;BME280;46113;50.130;8.526;2024-01-15T08:56:07;97697.34;;;-4.89;73.23
27685;BME280;46113;50.130;8.526;2024-01-15T08:58:35;97707.66;;;-4.87;73.54
27685;BME280;46113;50.130;8.526;2024-01-15T09:01:02;97693.88;;;-4.88;73.84
27685;BME280;46113;50.130;8.526;2024-01-15T09:03:30;97688.28;;;-4.66;73.71
27685;BME280;46113;50.130;8.526;2024-01-15T09:05:57;97697.66;;;-4.62;73.55
27685;BME280;46113;50.130;8.526;2024-01-15T09:08:24;97701.09;;;-4.61;74.35
27685;BME280;46113;50.130;8.526;2024-01-15T09:10:51;97702.63;;;-4.51;73.99
27685;BME280;46113;50.130;8.526;2024-01-15T09:13:18;97710.16;;;-4.41;73.41
27685;BME280;46113;50.130;8.526;2024-01-15T09:15:44;97698.22;;;-4.47;73.35
27685;BME280;46113;50.130;8.526;2024-01-15T09:18:11;97693.94;;;-4.48;73.49
27685;BME280;46113;50.130;8.526;2024-01-15T09:20:38;97698.53;;;-4.22;73.11
27685;BME280;46113;50.130;8.526;2024-01-15T09:23:05;97701.22;;;-4.26;72.46
27685;BME280;46113;50.130;8.526;2024-01-15T09:25:32;97705.22;;;-4.52;72.82
27685;BME280;46113;50.130;8.526;2024-01-15T09:27:59;97705.84;;;-4.42;72.56
27685;BME280;46113;50.130;8.526;2024-01-15T09:30:26;97704.72;;;-4.29;72.00
27685;BME280;46113;50.130;8.526;2024-01-15T09:32:53;97697.44;;;-4.51;73.58
27685;BME280;46113;50.130;8.526;2024-01-15T09:35:20;97693.59;;;-4.31;72.36
27685;BME280;46113;50.130;8.526;2024-01-15T09:37:50;97698.22;;;-4.47;73.01
27685;BME280;46113;50.130;8.526;2024-01-15T09:40:17;97702.28;;;-4.35;72.73
27685;BME280;46113;50.130;8.526;2024-01-15T09:42:47;97706.19;;;-4.58;73.44
27685;BME280;46113;50.130;8.526;2024-01-15T09:45:14;97703.38;;;-4.45;72.97
27685;BME280;46113;50.130;8.526;2024-01-15T09:47:41;97698.31;;;-4.12;72.46
27685;BME280;46113;50.130;8.526;2024-01-15T09:50:13;97701.28;;;-4.29;71.99
27685;BME280;46113;50.130;8.526;2024-01-15T09:52:40;97686.22;;;-4.10;72.67
27685;BME280;46113;50.130;8.526;2024-01-15T09:55:09;97686.97;;;-4.05;72.32
27685;BME280;46113;50.130;8.526;2024-01-15T09:57:36;97678.31;;;-4.42;72.73
27685;BME280;46113;50.130;8.526;2024-01-15T10:00:05;97676.81;;;-4.13;72.01
27685;BME280;46113;50.130;8.526;2024-01-15T10:02:34;97680.72;;;-3.96;72.06
27685;BME280;46113;50.130;8.526;2024-01-15T10:05:02;97677.09;;;-3.89;71.83
27685;BME280;46113;50.130;8.526;2024-01-15T10:07:30;97672.66;;;-4.20;72.58
27685;BME280;46113;50.130;8.526;2024-01-15T10:10:01;97671.56;;;-4.10;72.03
27685;BME280;46113;50.130;8.526;2024-01-15T10:12:30;97679.66;;;-3.87;71.54
27685;BME280;46113;50.130;8.526;2024-01-15T10:14:57;97674.66;;;-3.95;71.71
27685;BME280;46113;50.130;8.526;2024-01-15T10:17:24;97671.69;;;-3.78;71.54
27685;BME280;46113;50.130;8.526;2024-01-15T10:19:55;97668.28;;;-3.80;71.48
27685;BME280;46113;50.130;8.526;2024-01-15T10:22:22;97667.16;;;-3.68;71.64
27685;BME280;46113;50.130;8.526;2024-01-15T10:24:49;97663.41;;;-3.92;70.97
27685;BME280;46113;50.130;8.526;2024-01-15T10:27:16;97669.78;;;-4.06;71.40
27685;BME280;46113;50.130;8.526;2024-01-15T10:29:43;97661.88;;;-4.00;71.48
27685;BME280;46113;50.130;8.526;2024-01-15T10:32:11;97668.44;;;-3.86;71.05
27685;BME280;46113;50.130;8.526;2024-01-15T10:34:39;97664.56;;;-4.04;71.29
27685;BME280;46113;50.130;8.526;2024-01-15T10:37:08;97658.06;;;-3.85;71.71
27685;BME280;46113;50.130;8.526;2024-01-15T10:39:36;97654.50;;;-3.81;70.97
27685;BME280;46113;50.130;8.526;2024-01-15T10:42:03;97653.28;;;-4.02;71.29
27685;BME280;46113;50.130;8.526;2024-01-15T10:44:31;97643.44;;;-3.86;71.20
27685;BME280;46113;50.130;8.526;2024-01-15T10:46:58;97640.16;;;-4.29;71.76
27685;BME280;46113;50.130;8.526;2024-01-15T10:49:25;97635.69;;;-3.86;71.31
27685;BME280;46113;50.130;8.526;2024-01-15T10:52:01;97631.19;;;-3.77;71.78
27685;BME280;46113;50.130;8.526;2024-01-15T10:54:29;97640.72;;;-3.46;71.11
27685;BME280;46113;50.130;8.526;2024-01-15T10:56:56;97639.69;;;-3.41;71.08
27685;BME280;46113;50.130;8.526;2024-01-15T10:59:24;97634.78;;;-3.85;70.63
27685;BME280;46113;50.130;8.526;2024-01-15T11:01:51;97629.84;;;-3.59;70.75
27685;BME280;46113;50.130;8.526;2024-01-15T11:04:23;97619.56;;;-3.28;70.11
27685;BME280;46113;50.130;8.526;2024-01-15T11:06:54;97616.91;;;-3.58;70.42
27685;BME280;46113;50.130;8.526;2024-01-15T11:09:23;97612.78;;;-3.66;70.40
27685;BME280;46113;50.130;8.526;2024-01-15T11:12:13;97621.03;;;-3.52;70.11
27685;BME280;46113;50.130;8.526;2024-01-15T11:14:47;97611.72;;;-3.26;70.11
27685;BME280;46113;50.130;8.526;2024-01-15T11:17:16;97607.34;;;-3.56;69.50
27685;BME280;46113;50.130;8.526;2024-01-15T11:19:45;97598.28;;;-3.71;71.26
27685;BME280;46113;50.130;8.526;2024-01-15T11:22:48;97595.44;;;-3.30;69.32
27685;BME280;46113;50.130;8.526;2024-01-15T11:25:18;97598.72;;;-3.23;68.32
27685;BME280;46113;50.130;8.526;2024-01-15T11:27:52;97594.00;;;-3.08;68.19
27685;BME280;46113;50.130;8.526;2024-01-15T11:30:24;97589.66;;;-2.78;68.43
27685;BME280;46113;50.130;8.526;2024-01-15T11:32:52;97590.88;;;-2.90;67.72
27685;BME280;46113;50.130;8.526;2024-01-15T11:35:19;97594.03;;;-2.51;67.24
27685;BME280;46113;50.130;8.526;2024-01-15T11:43:02;97589.81;;;-2.54;67.25
27685;BME280;46113;50.130;8.526;2024-01-15T11:45:30;97591.91;;;-2.67;67.48
27685;BME280;46113;50.130;8.526;2024-01-15T11:50:34;97582.19;;;-2.87;67.51
27685;BME280;46113;50.130;8.526;2024-01-15T11:53:03;97572.34;;;-2.47;66.83
27685;BME280;46113;50.130;8.526;2024-01-15T11:55:41;97571.94;;;-2.35;66.99
27685;BME280;46113;50.130;8.526;2024-01-15T11:58:11;97576.69;;;-2.20;66.92
27685;BME280;46113;50.130;8.526;2024-01-15T12:00:47;97569.31;;;-2.62;66.77
27685;BME280;46113;50.130;8.526;2024-01-15T12:03:14;97567.34;;;-2.53;66.94
27685;BME280;46113;50.130;8.526;2024-01-15T12:05:41;97568.06;;;-2.77;67.48
27685;BME280;46113;50.130;8.526;2024-01-15T12:08:11;97563.88;;;-2.52;67.57
27685;BME280;46113;50.130;8.526;2024-01-15T12:10:39;97564.31;;;-2.66;67.48
27685;BME280;46113;50.130;8.526;2024-01-15T12:13:14;97557.41;;;-2.96;67.37
27685;BME280;46113;50.130;8.526;2024-01-15T12:15:42;97562.22;;;-3.13;68.81
27685;BME280;46113;50.130;8.526;2024-01-15T12:18:12;97568.25;;;-3.13;69.00
27685;BME280;46113;50.130;8.526;2024-01-15T12:20:40;97552.34;;;-2.99;68.52
27685;BME280;46113;50.130;8.526;2024-01-15T12:23:09;97551.81;;;-2.82;68.13
27685;BME280;46113;50.130;8.526;2024-01-15T12:25:37;97551.00;;;-2.84;68.52
27685;BME280;46113;50.130;8.526;2024-01-15T12:28:05;97550.13;;;-3.13;68.42
27685;BME280;46113;50.130;8.526;2024-01-15T12:30:34;97550.09;;;-3.11;68.73
27685;BME280;46113;50.130;8.526;2024-01-15T12:33:05;97537.97;;;-3.09;67.99
27685;BME280;46113;50.130;8.526;2024-01-15T12:35:36;97542.31;;;-2.81;68.23
27685;BME280;46113;50.130;8.526;2024-01-15T12:38:04;97545.84;;;-2.57;68.18
27685;BME280;46113;50.130;8.526;2024-01-15T12:40:32;97540.31;;;-3.02;67.65
27685;BME280;46113;50.130;8.526;2024-01-15T12:43:02;97545.78;;;-2.82;69.03
27685;BME280;46113;50.130;8.526;2024-01-15T12:45:30;97553.78;;;-2.62;68.31
27685;BME280;46113;50.130;8.526;2024-01-15T12:47:58;97550.06;;;-3.10;68.66
27685;BME280;46113;50.130;8.526;2024-01-15T12:50:27;97559.97;;;-2.96;68.91
27685;BME280;46113;50.130;8.526;2024-01-15T12:52:53;97566.88;;;-3.25;70.35
27685;BME280;46113;50.130;8.526;2024-01-15T12:55:20;97567.25;;;-3.09;70.86
27685;BME280;46113;50.130;8.526;2024-01-15T12:57:47;97570.19;;;-3.51;71.66
27685;BME280;46113;50.130;8.526;2024-01-15T13:00:16;97564.19;;;-3.22;72.30
27685;BME280;46113;50.130;8.526;2024-01-15T13:02:43;97574.63;;;-3.57;73.28
27685;BME280;46113;50.130;8.526;2024-01-15T13:05:11;97573.13;;;-3.34;73.09
27685;BME280;46113;50.130;8.526;2024-01-15T13:07:41;97586.38;;;-3.45;74.17
27685;BME280;46113;50.130;8.526;2024-01-15T13:10:08;97585.81;;;-3.56;75.33
27685;BME280;46113;50.130;8.526;2024-01-15T13:12:40;97583.16;;;-3.53;74.90
27685;BME280;46113;50.130;8.526;2024-01-15T13:15:08;97586.19;;;-3.70;75.70
27685;BME280;46113;50.130;8.526;2024-01-15T13:17:41;97573.91;;;-3.62;76.70
27685;BME280;46113;50.130;8.526;2024-01-15T13:20:10;97573.66;;;-3.86;77.20